sensor_id;sensor_type;location;lat;lon;timestamp;pressure;altitude;pressure_sealevel;temperature;humidity
48244;BME280;34053;51.088;6.572;2023-03-13T00:02:30;99872.53;;;10.37;74.51
48244;BME280;34053;51.088;6.572;2023-03-13T00:05:00;99864.66;;;10.37;74.95
48244;BME280;34053;51.088;6.572;2023-03-13T00:07:30;99864.63;;;10.39;74.73
48244;BME280;34053;51.088;6.572;2023-03-13T00:10:01;99851.44;;;10.41;74.69
48244;BME280;34053;51.088;6.572;2023-03-13T00:12:31;99836.56;;;10.41;74.26
48244;BME280;34053;51.088;6.572;2023-03-13T00:15:02;99838.94;;;10.47;74.25
48244;BME280;34053;51.088;6.572;2023-03-13T00:17:32;99830.19;;;10.47;74.75
48244;BME280;34053;51.088;6.572;2023-03-13T00:20:03;99830.72;;;10.55;74.46
48244;BME280;34053;51.088;6.572;2023-03-13T00:22:34;99830.00;;;10.51;74.68
48244;BME280;34053;51.088;6.572;2023-03-13T00:25:05;99826.53;;;10.51;75.24
48244;BME280;34053;51.088;6.572;2023-03-13T00:27:35;99816.78;;;10.54;75.02
48244;BME280;34053;51.088;6.572;2023-03-13T00:30:06;99812.38;;;10.55;75.29
48244;BME280;34053;51.088;6.572;2023-03-13T00:32:41;99800.06;;;10.57;75.68
48244;BME280;34053;51.088;6.572;2023-03-13T00:35:12;99803.47;;;10.59;76.56
48244;BME280;34053;51.088;6.572;2023-03-13T00:37:43;99795.69;;;10.58;76.47
48244;BME280;34053;51.088;6.572;2023-03-13T00:40:14;99798.22;;;10.59;77.15
48244;BME280;34053;51.088;6.572;2023-03-13T00:42:44;99782.47;;;10.59;77.05
48244;BME280;34053;51.088;6.572;2023-03-13T00:45:15;99784.03;;;10.63;76.98
48244;BME280;34053;51.088;6.572;2023-03-13T00:47:45;99780.38;;;10.67;77.08
48244;BME280;34053;51.088;6.572;2023-03-13T00:50:15;99771.59;;;10.68;76.99
48244;BME280;34053;51.088;6.572;2023-03-13T00:52:46;99775.94;;;10.69;77.62
48244;BME280;34053;51.088;6.572;2023-03-13T00:55:16;99771.59;;;10.68;77.12
48244;BME280;34053;51.088;6.572;2023-03-13T00:57:47;99766.16;;;10.73;77.19
48244;BME280;34053;51.088;6.572;2023-03-13T01:00:18;99764.50;;;10.70;77.35
48244;BME280;34053;51.088;6.572;2023-03-13T01:02:48;99751.25;;;10.74;77.30
48244;BME280;34053;51.088;6.572;2023-03-13T01:05:19;99746.81;;;10.76;77.31
48244;BME280;34053;51.088;6.572;2023-03-13T01:07:49;99738.13;;;10.74;77.66
48244;BME280;34053;51.088;6.572;2023-03-13T01:10:20;99737.03;;;10.79;77.68
48244;BME280;34053;51.088;6.572;2023-03-13T01:12:50;99735.31;;;10.78;77.96
48244;BME280;34053;51.088;6.572;2023-03-13T01:15:21;99726.53;;;10.79;77.82
48244;BME280;34053;51.088;6.572;2023-03-13T01:17:51;99730.91;;;10.79;77.97
48244;BME280;34053;51.088;6.572;2023-03-13T01:20:22;99731.69;;;10.81;78.10
48244;BME280;34053;51.088;6.572;2023-03-13T01:22:52;99720.28;;;10.82;78.38
48244;BME280;34053;51.088;6.572;2023-03-13T01:25:23;99720.41;;;10.79;78.47
48244;BME280;34053;51.088;6.572;2023-03-13T01:27:53;99714.91;;;10.85;78.46
48244;BME280;34053;51.088;6.572;2023-03-13T01:30:23;99720.22;;;10.83;78.33
48244;BME280;34053;51.088;6.572;2023-03-13T01:32:54;99710.44;;;10.87;79.44
48244;BME280;34053;51.088;6.572;2023-03-13T01:35:24;99699.09;;;10.86;79.84
48244;BME280;34053;51.088;6.572;2023-03-13T01:37:55;99702.72;;;10.84;80.27
48244;BME280;34053;51.088;6.572;2023-03-13T01:40:25;99699.19;;;10.85;80.91
48244;BME280;34053;51.088;6.572;2023-03-13T01:42:58;99697.47;;;10.84;81.02
48244;BME280;34053;51.088;6.572;2023-03-13T01:46:33;99699.00;;;10.88;81.29
48244;BME280;34053;51.088;6.572;2023-03-13T01:51:39;99679.72;;;10.89;82.48
48244;BME280;34053;51.088;6.572;2023-03-13T01:54:19;99671.16;;;10.85;83.66
48244;BME280;34053;51.088;6.572;2023-03-13T01:59:25;99644.56;;;10.93;83.81
48244;BME280;34053;51.088;6.572;2023-03-13T02:01:59;99643.78;;;10.91;84.39
48244;BME280;34053;51.088;6.572;2023-03-13T02:04:34;99640.31;;;10.91;84.38
48244;BME280;34053;51.088;6.572;2023-03-13T02:07:10;99625.53;;;10.88;84.84
48244;BME280;34053;51.088;6.572;2023-03-13T02:09:43;99622.88;;;10.90;84.55
48244;BME280;34053;51.088;6.572;2023-03-13T02:12:22;99622.16;;;10.86;85.63
48244;BME280;34053;51.088;6.572;2023-03-13T02:14:57;99615.19;;;10.85;85.80
48244;BME280;34053;51.088;6.572;2023-03-13T02:17:29;99608.88;;;10.89;85.45
48244;BME280;34053;51.088;6.572;2023-03-13T02:19:59;99604.53;;;10.88;86.25
48244;BME280;34053;51.088;6.572;2023-03-13T02:22:38;99607.25;;;10.86;86.61
48244;BME280;34053;51.088;6.572;2023-03-13T02:28:00;99602.63;;;10.92;87.13
48244;BME280;34053;51.088;6.572;2023-03-13T02:30:34;99590.66;;;10.86;88.63
48244;BME280;34053;51.088;6.572;2023-03-13T02:33:05;99596.03;;;10.83;89.24
48244;BME280;34053;51.088;6.572;2023-03-13T02:35:35;99582.59;;;10.91;88.10
48244;BME280;34053;51.088;6.572;2023-03-13T02:38:07;99589.59;;;10.90;88.73
48244;BME280;34053;51.088;6.572;2023-03-13T02:40:42;99595.91;;;10.86;89.49
48244;BME280;34053;51.088;6.572;2023-03-13T02:43:22;99583.97;;;10.79;89.77
48244;BME280;34053;51.088;6.572;2023-03-13T02:46:12;99576.06;;;10.80;90.33
48244;BME280;34053;51.088;6.572;2023-03-13T02:48:49;99568.97;;;10.82;89.41
48244;BME280;34053;51.088;6.572;2023-03-13T02:54:00;99554.06;;;10.83;89.94
48244;BME280;34053;51.088;6.572;2023-03-13T02:56:33;99541.84;;;10.82;89.57
48244;BME280;34053;51.088;6.572;2023-03-13T02:59:05;99530.53;;;10.81;89.40
48244;BME280;34053;51.088;6.572;2023-03-13T03:01:36;99527.69;;;10.86;88.79
48244;BME280;34053;51.088;6.572;2023-03-13T03:04:07;99524.56;;;10.78;90.12
48244;BME280;34053;51.088;6.572;2023-03-13T03:06:37;99509.59;;;10.80;89.87
48244;BME280;34053;51.088;6.572;2023-03-13T03:09:08;99520.03;;;10.81;90.05
48244;BME280;34053;51.088;6.572;2023-03-13T03:11:38;99517.41;;;10.81;90.03
48244;BME280;34053;51.088;6.572;2023-03-13T03:14:12;99522.72;;;10.80;90.04
48244;BME280;34053;51.088;6.572;2023-03-13T03:16:42;99520.25;;;10.77;90.73
48244;BME280;34053;51.088;6.572;2023-03-13T03:19:13;99519.03;;;10.84;90.15
48244;BME280;34053;51.088;6.572;2023-03-13T03:21:44;99528.66;;;10.83;90.23
48244;BME280;34053;51.088;6.572;2023-03-13T03:24:14;99526.69;;;10.89;89.25
48244;BME280;34053;51.088;6.572;2023-03-13T03:26:45;99522.94;;;10.94;88.54
48244;BME280;34053;51.088;6.572;2023-03-13T03:29:16;99513.47;;;10.90;89.51
48244;BME280;34053;51.088;6.572;2023-03-13T03:31:46;99513.63;;;10.87;90.11
48244;BME280;34053;51.088;6.572;2023-03-13T03:34:17;99515.31;;;10.88;89.95
48244;BME280;34053;51.088;6.572;2023-03-13T03:36:47;99516.09;;;10.90;90.21
48244;BME280;34053;51.088;6.572;2023-03-13T03:39:18;99512.88;;;10.85;90.53
48244;BME280;34053;51.088;6.572;2023-03-13T03:41:48;99509.16;;;10.89;90.45
48244;BME280;34053;51.088;6.572;2023-03-13T03:44:19;99503.69;;;10.94;90.83
48244;BME280;34053;51.088;6.572;2023-03-13T03:46:49;99506.41;;;10.92;90.47
48244;BME280;34053;51.088;6.572;2023-03-13T03:49:19;99497.44;;;10.96;89.90
48244;BME280;34053;51.088;6.572;2023-03-13T03:51:50;99501.84;;;10.96;91.05
48244;BME280;34053;51.088;6.572;2023-03-13T03:54:20;99513.88;;;11.00;90.40
48244;BME280;34053;51.088;6.572;2023-03-13T03:56:51;99509.50;;;11.00;90.79
48244;BME280;34053;51.088;6.572;2023-03-13T03:59:21;99511.03;;;11.05;90.64
48244;BME280;34053;51.088;6.572;2023-03-13T04:01:52;99505.78;;;11.05;91.18
48244;BME280;34053;51.088;6.572;2023-03-13T04:04:22;99503.81;;;11.10;91.13
48244;BME280;34053;51.088;6.572;2023-03-13T04:06:53;99509.91;;;11.10;91.43
48244;BME280;34053;51.088;6.572;2023-03-13T04:09:23;99499.25;;;11.13;90.74
48244;BME280;34053;51.088;6.572;2023-03-13T04:11:57;99485.22;;;11.14;90.37
48244;BME280;34053;51.088;6.572;2023-03-13T04:14:27;99485.75;;;11.21;90.56
48244;BME280;34053;51.088;6.572;2023-03-13T04:16:58;99478.94;;;11.17;90.87
48244;BME280;34053;51.088;6.572;2023-03-13T04:19:28;99487.63;;;11.19;90.77
48244;BME280;34053;51.088;6.572;2023-03-13T04:21:59;99497.25;;;11.18;91.59
48244;BME280;34053;51.088;6.572;2023-03-13T04:24:29;99491.84;;;11.22;91.00
48244;BME280;34053;51.088;6.572;2023-03-13T04:26:59;99483.66;;;11.28;91.46
48244;BME280;34053;51.088;6.572;2023-03-13T04:29:32;99481.03;;;11.28;91.08
48244;BME280;34053;51.088;6.572;2023-03-13T04:32:03;99488.47;;;11.37;90.64
48244;BME280;34053;51.088;6.572;2023-03-13T04:34:33;99485.91;;;11.36;90.97
48244;BME280;34053;51.088;6.572;2023-03-13T04:37:04;99488.47;;;11.37;90.86
48244;BME280;34053;51.088;6.572;2023-03-13T04:39:35;99478.56;;;11.42;90.85
48244;BME280;34053;51.088;6.572;2023-03-13T04:42:05;99480.81;;;11.50;90.08
48244;BME280;34053;51.088;6.572;2023-03-13T04:44:36;99479.13;;;11.49;90.83
48244;BME280;34053;51.088;6.572;2023-03-13T04:47:06;99481.66;;;11.50;90.42
48244;BME280;34053;51.088;6.572;2023-03-13T04:49:37;99476.25;;;11.54;90.45
48244;BME280;34053;51.088;6.572;2023-03-13T04:52:07;99467.03;;;11.62;90.08
48244;BME280;34053;51.088;6.572;2023-03-13T04:54:38;99481.72;;;11.67;89.88
48244;BME280;34053;51.088;6.572;2023-03-13T04:57:08;99479.88;;;11.69;89.85
48244;BME280;34053;51.088;6.572;2023-03-13T04:59:39;99470.97;;;11.71;90.19
48244;BME280;34053;51.088;6.572;2023-03-13T05:02:11;99463.09;;;11.71;90.31
48244;BME280;34053;51.088;6.572;2023-03-13T05:04:42;99457.75;;;11.73;89.83
48244;BME280;34053;51.088;6.572;2023-03-13T05:07:12;99455.91;;;11.75;89.59
48244;BME280;34053;51.088;6.572;2023-03-13T05:09:43;99457.53;;;11.77;89.10
48244;BME280;34053;51.088;6.572;2023-03-13T05:12:13;99438.09;;;11.80;89.45
48244;BME280;34053;51.088;6.572;2023-03-13T05:14:43;99434.56;;;11.81;89.47
48244;BME280;34053;51.088;6.572;2023-03-13T05:17:14;99435.47;;;11.80;89.58
48244;BME280;34053;51.088;6.572;2023-03-13T05:19:44;99431.00;;;11.82;89.38
48244;BME280;34053;51.088;6.572;2023-03-13T05:22:15;99428.38;;;11.82;89.18
48244;BME280;34053;51.088;6.572;2023-03-13T05:24:45;99430.06;;;11.83;89.36
48244;BME280;34053;51.088;6.572;2023-03-13T05:27:15;99426.56;;;11.82;89.25
48244;BME280;34053;51.088;6.572;2023-03-13T05:29:46;99425.34;;;11.90;88.43
48244;BME280;34053;51.088;6.572;2023-03-13T05:32:16;99414.06;;;11.88;89.10
48244;BME280;34053;51.088;6.572;2023-03-13T05:34:47;99406.84;;;11.91;88.61
48244;BME280;34053;51.088;6.572;2023-03-13T05:37:17;99414.66;;;11.93;88.36
48244;BME280;34053;51.088;6.572;2023-03-13T05:39:48;99415.22;;;12.00;88.12
48244;BME280;34053;51.088;6.572;2023-03-13T05:42:18;99428.47;;;11.96;87.75
48244;BME280;34053;51.088;6.572;2023-03-13T05:44:48;99433.72;;;11.96;88.36
48244;BME280;34053;51.088;6.572;2023-03-13T05:47:19;99438.97;;;11.98;87.96
48244;BME280;34053;51.088;6.572;2023-03-13T05:49:49;99432.69;;;12.01;87.47
48244;BME280;34053;51.088;6.572;2023-03-13T05:52:20;99424.81;;;12.01;87.71
48244;BME280;34053;51.088;6.572;2023-03-13T05:54:50;99432.84;;;11.98;87.81
48244;BME280;34053;51.088;6.572;2023-03-13T05:57:20;99438.78;;;12.01;87.71
48244;BME280;34053;51.088;6.572;2023-03-13T05:59:51;99443.88;;;12.04;87.65
48244;BME280;34053;51.088;6.572;2023-03-13T06:02:21;99435.22;;;12.02;87.59
48244;BME280;34053;51.088;6.572;2023-03-13T06:04:52;99445.66;;;12.04;87.45
48244;BME280;34053;51.088;6.572;2023-03-13T06:07:22;99446.41;;;12.06;87.21
48244;BME280;34053;51.088;6.572;2023-03-13T06:09:53;99443.78;;;12.06;87.60
48244;BME280;34053;51.088;6.572;2023-03-13T06:12:23;99446.28;;;12.09;87.06
48244;BME280;34053;51.088;6.572;2023-03-13T06:14:54;99453.97;;;12.12;86.33
48244;BME280;34053;51.088;6.572;2023-03-13T06:17:24;99442.47;;;12.15;86.10
48244;BME280;34053;51.088;6.572;2023-03-13T06:19:55;99454.75;;;12.14;86.39
48244;BME280;34053;51.088;6.572;2023-03-13T06:22:25;99448.31;;;12.20;85.55
48244;BME280;34053;51.088;6.572;2023-03-13T06:24:56;99438.72;;;12.19;85.82
48244;BME280;34053;51.088;6.572;2023-03-13T06:27:26;99433.47;;;12.19;85.84
48244;BME280;34053;51.088;6.572;2023-03-13T06:29:57;99435.00;;;12.23;85.54
48244;BME280;34053;51.088;6.572;2023-03-13T06:32:27;99444.50;;;12.25;85.00
48244;BME280;34053;51.088;6.572;2023-03-13T06:34:57;99442.47;;;12.31;84.64
48244;BME280;34053;51.088;6.572;2023-03-13T06:37:28;99456.53;;;12.30;84.55
48244;BME280;34053;51.088;6.572;2023-03-13T06:39:58;99465.19;;;12.32;84.46
48244;BME280;34053;51.088;6.572;2023-03-13T06:42:29;99460.53;;;12.37;84.04
48244;BME280;34053;51.088;6.572;2023-03-13T06:44:59;99470.31;;;12.35;83.77
48244;BME280;34053;51.088;6.572;2023-03-13T06:47:30;99454.44;;;12.36;83.83
48244;BME280;34053;51.088;6.572;2023-03-13T06:50:01;99470.91;;;12.40;83.53
48244;BME280;34053;51.088;6.572;2023-03-13T06:52:32;99468.09;;;12.43;82.99
48244;BME280;34053;51.088;6.572;2023-03-13T06:55:03;99456.63;;;12.44;83.18
48244;BME280;34053;51.088;6.572;2023-03-13T06:57:34;99460.28;;;12.41;83.33
48244;BME280;34053;51.088;6.572;2023-03-13T07:00:05;99458.41;;;12.43;83.10
48244;BME280;34053;51.088;6.572;2023-03-13T07:02:36;99444.44;;;12.43;83.18
48244;BME280;34053;51.088;6.572;2023-03-13T07:05:07;99451.38;;;12.44;82.67
48244;BME280;34053;51.088;6.572;2023-03-13T07:07:37;99440.53;;;12.50;81.98
48244;BME280;34053;51.088;6.572;2023-03-13T07:10:09;99437.91;;;12.50;82.00
48244;BME280;34053;51.088;6.572;2023-03-13T07:12:40;99439.41;;;12.54;80.99
48244;BME280;34053;51.088;6.572;2023-03-13T07:15:10;99442.03;;;12.54;81.36
48244;BME280;34053;51.088;6.572;2023-03-13T07:17:41;99445.59;;;12.53;81.17
48244;BME280;34053;51.088;6.572;2023-03-13T07:20:11;99433.38;;;12.52;81.12
48244;BME280;34053;51.088;6.572;2023-03-13T07:22:50;99427.19;;;12.53;80.75
48244;BME280;34053;51.088;6.572;2023-03-13T07:25:20;99426.94;;;12.58;80.23
48244;BME280;34053;51.088;6.572;2023-03-13T07:27:51;99413.69;;;12.59;79.85
48244;BME280;34053;51.088;6.572;2023-03-13T07:30:22;99417.59;;;12.68;79.05
48244;BME280;34053;51.088;6.572;2023-03-13T07:32:52;99412.59;;;12.64;79.62
48244;BME280;34053;51.088;6.572;2023-03-13T07:35:23;99415.72;;;12.70;78.54
48244;BME280;34053;51.088;6.572;2023-03-13T07:37:53;99405.19;;;12.70;78.67
48244;BME280;34053;51.088;6.572;2023-03-13T07:40:24;99405.00;;;12.73;78.35
48244;BME280;34053;51.088;6.572;2023-03-13T07:42:54;99409.34;;;12.74;78.20
48244;BME280;34053;51.088;6.572;2023-03-13T07:45:25;99409.34;;;12.74;78.48
48244;BME280;34053;51.088;6.572;2023-03-13T07:47:55;99404.00;;;12.76;78.09
48244;BME280;34053;51.088;6.572;2023-03-13T07:50:26;99408.31;;;12.77;77.91
48244;BME280;34053;51.088;6.572;2023-03-13T07:52:56;99394.03;;;12.81;77.34
48244;BME280;34053;51.088;6.572;2023-03-13T07:55:26;99390.59;;;12.81;76.92
48244;BME280;34053;51.088;6.572;2023-03-13T07:57:57;99399.31;;;12.81;76.78
48244;BME280;34053;51.088;6.572;2023-03-13T08:00:27;99395.53;;;12.85;76.48
48244;BME280;34053;51.088;6.572;2023-03-13T08:02:58;99400.75;;;12.87;76.63
48244;BME280;34053;51.088;6.572;2023-03-13T08:05:28;99392.91;;;12.85;76.92
48244;BME280;34053;51.088;6.572;2023-03-13T08:07:58;99397.09;;;12.89;77.05
48244;BME280;34053;51.088;6.572;2023-03-13T08:10:30;99399.88;;;12.86;77.01
48244;BME280;34053;51.088;6.572;2023-03-13T08:13:00;99386.44;;;12.91;76.66
48244;BME280;34053;51.088;6.572;2023-03-13T08:15:31;99398.78;;;12.90;76.28
48244;BME280;34053;51.088;6.572;2023-03-13T08:18:01;99395.94;;;12.94;76.58
48244;BME280;34053;51.088;6.572;2023-03-13T08:20:32;99407.44;;;12.93;76.91
48244;BME280;34053;51.088;6.572;2023-03-13T08:23:02;99395.94;;;12.94;77.18
48244;BME280;34053;51.088;6.572;2023-03-13T08:25:32;99399.09;;;13.00;77.11
48244;BME280;34053;51.088;6.572;2023-03-13T08:28:03;99402.47;;;13.02;77.02
48244;BME280;34053;51.088;6.572;2023-03-13T08:30:33;99399.69;;;13.05;77.36
48244;BME280;34053;51.088;6.572;2023-03-13T08:33:04;99397.88;;;13.06;77.08
48244;BME280;34053;51.088;6.572;2023-03-13T08:35:34;99395.09;;;13.09;77.04
48244;BME280;34053;51.088;6.572;2023-03-13T08:38:05;99391.47;;;13.10;77.19
48244;BME280;34053;51.088;6.572;2023-03-13T08:40:36;99388.50;;;13.16;77.01
48244;BME280;34053;51.088;6.572;2023-03-13T08:43:06;99406.00;;;13.17;77.92
48244;BME280;34053;51.088;6.572;2023-03-13T08:45:36;99405.03;;;13.18;78.23
48244;BME280;34053;51.088;6.572;2023-03-13T08:48:07;99398.28;;;13.14;78.64
48244;BME280;34053;51.088;6.572;2023-03-13T08:50:37;99370.16;;;13.15;79.21
48244;BME280;34053;51.088;6.572;2023-03-13T08:53:08;99380.69;;;13.15;79.75
48244;BME280;34053;51.088;6.572;2023-03-13T08:55:38;99374.41;;;13.17;79.69
48244;BME280;34053;51.088;6.572;2023-03-13T08:58:09;99381.44;;;13.17;79.61
48244;BME280;34053;51.088;6.572;2023-03-13T09:00:39;99367.25;;;13.19;80.08
48244;BME280;34053;51.088;6.572;2023-03-13T09:03:09;99368.78;;;13.23;79.84
48244;BME280;34053;51.088;6.572;2023-03-13T09:05:40;99370.63;;;13.21;80.13
48244;BME280;34053;51.088;6.572;2023-03-13T09:08:11;99360.59;;;13.28;80.49
48244;BME280;34053;51.088;6.572;2023-03-13T09:10:41;99365.75;;;13.30;81.01
48244;BME280;34053;51.088;6.572;2023-03-13T09:13:11;99358.63;;;13.32;80.77
48244;BME280;34053;51.088;6.572;2023-03-13T09:15:42;99353.16;;;13.35;81.15
48244;BME280;34053;51.088;6.572;2023-03-13T09:18:12;99349.56;;;13.36;80.57
48244;BME280;34053;51.088;6.572;2023-03-13T09:20:44;99347.34;;;13.44;80.43
48244;BME280;34053;51.088;6.572;2023-03-13T09:23:14;99361.28;;;13.46;80.33
48244;BME280;34053;51.088;6.572;2023-03-13T09:25:44;99338.06;;;13.53;80.01
48244;BME280;34053;51.088;6.572;2023-03-13T09:28:15;99347.56;;;13.56;79.54
48244;BME280;34053;51.088;6.572;2023-03-13T09:30:45;99349.03;;;13.60;79.77
48244;BME280;34053;51.088;6.572;2023-03-13T09:33:17;99350.00;;;13.59;79.34
48244;BME280;34053;51.088;6.572;2023-03-13T09:35:48;99352.44;;;13.62;79.62
48244;BME280;34053;51.088;6.572;2023-03-13T09:38:22;99337.56;;;13.61;79.77
48244;BME280;34053;51.088;6.572;2023-03-13T09:40:53;99346.41;;;13.60;79.20
48244;BME280;34053;51.088;6.572;2023-03-13T09:55:21;99319.94;;;13.90;78.80
48244;BME280;34053;51.088;6.572;2023-03-13T09:58:20;99307.97;;;13.99;78.54
48244;BME280;34053;51.088;6.572;2023-03-13T10:01:11;99309.38;;;14.05;77.71
48244;BME280;34053;51.088;6.572;2023-03-13T10:04:03;99307.38;;;14.08;77.45
48244;BME280;34053;51.088;6.572;2023-03-13T10:06:40;99330.59;;;14.16;77.15
48244;BME280;34053;51.088;6.572;2023-03-13T10:09:16;99318.00;;;14.21;77.23
48244;BME280;34053;51.088;6.572;2023-03-13T10:15:15;99311.59;;;14.38;76.93
48244;BME280;34053;51.088;6.572;2023-03-13T10:17:51;99297.16;;;14.44;76.78
48244;BME280;34053;51.088;6.572;2023-03-13T10:20:24;99290.72;;;14.48;76.01
48244;BME280;34053;51.088;6.572;2023-03-13T10:22:59;99296.84;;;14.48;76.35
48244;BME280;34053;51.088;6.572;2023-03-13T10:25:33;99284.19;;;14.54;76.32
48244;BME280;34053;51.088;6.572;2023-03-13T10:28:05;99274.38;;;14.56;75.25
48244;BME280;34053;51.088;6.572;2023-03-13T10:30:36;99292.00;;;14.55;75.90
48244;BME280;34053;51.088;6.572;2023-03-13T10:35:41;99285.47;;;14.61;74.23
48244;BME280;34053;51.088;6.572;2023-03-13T10:38:16;99273.56;;;14.68;74.63
48244;BME280;34053;51.088;6.572;2023-03-13T10:40:59;99276.66;;;14.75;74.75
48244;BME280;34053;51.088;6.572;2023-03-13T10:43:29;99265.59;;;14.83;73.42
48244;BME280;34053;51.088;6.572;2023-03-13T10:46:00;99257.44;;;14.86;73.54
48244;BME280;34053;51.088;6.572;2023-03-13T10:48:35;99271.91;;;14.93;73.13
48244;BME280;34053;51.088;6.572;2023-03-13T10:51:20;99271.91;;;14.93;72.34
48244;BME280;34053;51.088;6.572;2023-03-13T10:53:50;99262.97;;;14.95;72.75
48244;BME280;34053;51.088;6.572;2023-03-13T10:56:29;99256.19;;;14.91;73.12
48244;BME280;34053;51.088;6.572;2023-03-13T10:58:59;99251.97;;;14.89;73.17
48244;BME280;34053;51.088;6.572;2023-03-13T11:01:39;99236.13;;;14.89;72.82
48244;BME280;34053;51.088;6.572;2023-03-13T11:04:33;99250.38;;;14.86;72.52
48244;BME280;34053;51.088;6.572;2023-03-13T11:07:15;99262.22;;;14.93;72.82
48244;BME280;34053;51.088;6.572;2023-03-13T11:10:03;99249.53;;;14.99;72.48
48244;BME280;34053;51.088;6.572;2023-03-13T11:12:48;99247.31;;;15.05;72.55
48244;BME280;34053;51.088;6.572;2023-03-13T11:15:41;99232.59;;;15.14;71.40
48244;BME280;34053;51.088;6.572;2023-03-13T11:18:19;99217.28;;;15.19;71.72
48244;BME280;34053;51.088;6.572;2023-03-13T11:20:52;99220.25;;;15.15;71.85
48244;BME280;34053;51.088;6.572;2023-03-13T11:23:33;99209.47;;;15.18;70.75
48244;BME280;34053;51.088;6.572;2023-03-13T11:26:11;99204.09;;;15.06;71.19
48244;BME280;34053;51.088;6.572;2023-03-13T11:31:59;99194.81;;;15.01;71.23
48244;BME280;34053;51.088;6.572;2023-03-13T11:34:57;99201.13;;;15.11;71.78
48244;BME280;34053;51.088;6.572;2023-03-13T11:37:32;99184.28;;;15.25;72.12
48244;BME280;34053;51.088;6.572;2023-03-13T11:40:21;99184.28;;;15.25;70.57
48244;BME280;34053;51.088;6.572;2023-03-13T11:51:30;99164.56;;;15.55;69.40
48244;BME280;34053;51.088;6.572;2023-03-13T11:56:55;99154.81;;;15.55;69.58
48244;BME280;34053;51.088;6.572;2023-03-13T12:02:29;99155.72;;;15.67;69.14
48244;BME280;34053;51.088;6.572;2023-03-13T12:05:10;99143.28;;;15.81;68.80
48244;BME280;34053;51.088;6.572;2023-03-13T12:08:22;99147.34;;;15.73;69.17
48244;BME280;34053;51.088;6.572;2023-03-13T12:10:52;99128.72;;;15.75;68.29
48244;BME280;34053;51.088;6.572;2023-03-13T12:13:30;99152.03;;;15.70;68.01
48244;BME280;34053;51.088;6.572;2023-03-13T12:16:09;99137.00;;;15.70;68.07
48244;BME280;34053;51.088;6.572;2023-03-13T12:18:42;99107.81;;;16.08;68.27
48244;BME280;34053;51.088;6.572;2023-03-13T12:21:31;99124.16;;;16.01;68.03
48244;BME280;34053;51.088;6.572;2023-03-13T12:35:29;99074.16;;;16.32;65.12
48244;BME280;34053;51.088;6.572;2023-03-13T12:43:31;99065.94;;;16.01;66.60
48244;BME280;34053;51.088;6.572;2023-03-13T13:00:21;99062.03;;;16.64;63.49
48244;BME280;34053;51.088;6.572;2023-03-13T13:03:20;99053.13;;;16.65;63.34
48244;BME280;34053;51.088;6.572;2023-03-13T13:06:04;99047.09;;;16.63;62.48
48244;BME280;34053;51.088;6.572;2023-03-13T13:16:42;99022.56;;;16.72;64.24
48244;BME280;34053;51.088;6.572;2023-03-13T13:38:40;98993.28;;;16.74;63.00
48244;BME280;34053;51.088;6.572;2023-03-13T13:43:43;98985.66;;;16.36;63.16
48244;BME280;34053;51.088;6.572;2023-03-13T13:46:31;98983.00;;;16.25;63.53
48244;BME280;34053;51.088;6.572;2023-03-13T13:51:38;98976.16;;;16.34;64.02
48244;BME280;34053;51.088;6.572;2023-03-13T14:04:41;98963.97;;;16.43;63.63
48244;BME280;34053;51.088;6.572;2023-03-13T14:12:37;98943.78;;;16.30;65.57
48244;BME280;34053;51.088;6.572;2023-03-13T14:17:47;98940.66;;;16.25;64.94
48244;BME280;34053;51.088;6.572;2023-03-13T14:20:30;98939.44;;;16.41;64.74
48244;BME280;34053;51.088;6.572;2023-03-13T14:30:47;98946.44;;;16.19;64.45
48244;BME280;34053;51.088;6.572;2023-03-13T14:33:18;98934.66;;;16.12;63.93
48244;BME280;34053;51.088;6.572;2023-03-13T14:35:49;98951.59;;;15.98;64.40
48244;BME280;34053;51.088;6.572;2023-03-13T14:38:20;98942.84;;;15.97;64.86
48244;BME280;34053;51.088;6.572;2023-03-13T14:40:52;98969.41;;;15.96;64.91
48244;BME280;34053;51.088;6.572;2023-03-13T14:43:31;98929.63;;;15.97;64.52
48244;BME280;34053;51.088;6.572;2023-03-13T14:46:28;98937.78;;;15.94;64.58
48244;BME280;34053;51.088;6.572;2023-03-13T14:49:17;98928.50;;;15.88;65.35
48244;BME280;34053;51.088;6.572;2023-03-13T14:52:05;98916.84;;;15.91;65.22
48244;BME280;34053;51.088;6.572;2023-03-13T14:54:52;98915.44;;;15.87;65.01
48244;BME280;34053;51.088;6.572;2023-03-13T14:57:24;98919.09;;;15.73;65.52
48244;BME280;34053;51.088;6.572;2023-03-13T15:08:47;98907.22;;;15.79;65.78
48244;BME280;34053;51.088;6.572;2023-03-13T15:11:29;98892.06;;;15.69;65.27
48244;BME280;34053;51.088;6.572;2023-03-13T15:14:01;98884.88;;;15.71;65.75
48244;BME280;34053;51.088;6.572;2023-03-13T15:16:32;98879.56;;;15.71;65.86
48244;BME280;34053;51.088;6.572;2023-03-13T15:19:03;98865.31;;;15.85;65.71
48244;BME280;34053;51.088;6.572;2023-03-13T15:21:33;98872.38;;;15.85;66.11
48244;BME280;34053;51.088;6.572;2023-03-13T15:24:12;98866.00;;;15.87;66.55
48244;BME280;34053;51.088;6.572;2023-03-13T15:26:44;98863.25;;;15.89;66.08
48244;BME280;34053;51.088;6.572;2023-03-13T15:29:14;98869.16;;;15.93;65.32
48244;BME280;34053;51.088;6.572;2023-03-13T15:31:47;98855.28;;;15.78;65.34
48244;BME280;34053;51.088;6.572;2023-03-13T15:34:18;98849.88;;;15.79;65.09
48244;BME280;34053;51.088;6.572;2023-03-13T15:36:54;98835.81;;;15.79;64.14
48244;BME280;34053;51.088;6.572;2023-03-13T15:39:24;98840.66;;;15.73;64.58
48244;BME280;34053;51.088;6.572;2023-03-13T15:41:55;98839.28;;;15.79;63.37
48244;BME280;34053;51.088;6.572;2023-03-13T15:44:25;98840.28;;;15.78;63.87
48244;BME280;34053;51.088;6.572;2023-03-13T15:46:56;98826.47;;;15.86;63.62
48244;BME280;34053;51.088;6.572;2023-03-13T15:49:26;98819.22;;;15.77;63.77
48244;BME280;34053;51.088;6.572;2023-03-13T15:51:57;98811.19;;;15.78;63.74
48244;BME280;34053;51.088;6.572;2023-03-13T15:54:30;98812.53;;;15.72;63.60
48244;BME280;34053;51.088;6.572;2023-03-13T15:57:00;98797.84;;;15.80;63.91